createdAt,value
2023-02-03T00:02:50.950Z,69.67
2023-02-03T00:05:54.105Z,68.89
2023-02-03T00:08:58.323Z,68.35
2023-02-03T00:12:00.727Z,67.73
2023-02-03T00:15:03.263Z,65.59
2023-02-03T00:18:06.379Z,63.79
2023-02-03T00:21:08.919Z,64.04
2023-02-03T00:24:11.623Z,62.88
2023-02-03T00:27:14.379Z,61.62
2023-02-03T00:30:17.015Z,61.33
2023-02-03T00:33:19.470Z,61.90
2023-02-03T00:36:23.238Z,62.55
2023-02-03T00:39:25.992Z,62.53
2023-02-03T00:42:28.418Z,61.59
2023-02-03T00:45:30.941Z,61.63
2023-02-03T00:48:33.443Z,62.44
2023-02-03T00:51:35.906Z,62.80
2023-02-03T00:54:38.310Z,63.06
2023-02-03T00:57:40.729Z,63.62
2023-02-03T01:00:43.335Z,63.97
2023-02-03T01:03:45.910Z,62.85
2023-02-03T01:06:48.489Z,62.89
2023-02-03T01:09:50.989Z,62.87
2023-02-03T01:12:53.445Z,63.49
2023-02-03T01:15:55.799Z,64.49
2023-02-03T01:18:58.369Z,64.67
2023-02-03T01:22:00.771Z,64.12
2023-02-03T01:25:03.275Z,63.51
2023-02-03T01:28:07.811Z,63.11
2023-02-03T01:31:16.186Z,63.79
2023-02-03T01:34:18.767Z,64.03
2023-02-03T01:37:21.259Z,64.54
2023-02-03T01:40:23.795Z,65.07
2023-02-03T01:43:40.640Z,65.08
2023-02-03T01:46:47.270Z,65.17
2023-02-03T01:49:55.312Z,65.10
2023-02-03T01:53:00.543Z,64.33
2023-02-03T01:56:04.977Z,64.40
2023-02-03T01:59:07.792Z,64.50
2023-02-03T02:02:10.964Z,65.30
2023-02-03T02:05:41.427Z,65.86
2023-02-03T02:08:46.946Z,65.53
2023-02-03T02:11:49.680Z,66.28
2023-02-03T02:14:52.267Z,68.26
2023-02-03T02:18:26.361Z,69.00
2023-02-03T02:21:47.499Z,69.29
2023-02-03T02:25:35.047Z,69.21
2023-02-03T02:29:02.551Z,70.15
2023-02-03T02:32:13.939Z,71.33
2023-02-03T02:35:22.581Z,71.79
2023-02-03T02:39:01.703Z,71.51
2023-02-03T02:42:27.265Z,70.74
2023-02-03T02:45:36.576Z,70.78
2023-02-03T02:48:47.828Z,72.29
2023-02-03T02:51:50.973Z,73.08
2023-02-03T02:54:57.581Z,74.41
2023-02-03T02:58:05.711Z,74.37
2023-02-03T03:01:09.768Z,74.32
2023-02-03T03:04:16.686Z,74.79
2023-02-03T03:07:23.450Z,75.29
2023-02-03T03:10:29.218Z,75.30
2023-02-03T03:13:39.388Z,75.51
2023-02-03T03:16:46.349Z,74.88
2023-02-03T03:19:53.502Z,75.30
2023-02-03T03:23:06.068Z,76.32
2023-02-03T03:26:20.436Z,76.21
2023-02-03T03:29:29.612Z,76.08
2023-02-03T03:32:33.140Z,75.29
2023-02-03T03:35:44.097Z,74.79
2023-02-03T03:38:52.304Z,75.18
2023-02-03T03:42:10.039Z,74.86
2023-02-03T03:45:43.338Z,75.40
2023-02-03T03:48:57.332Z,74.49
2023-02-03T03:52:04.458Z,75.48
2023-02-03T03:55:09.021Z,75.55
2023-02-03T03:58:14.712Z,74.89
2023-02-03T04:01:18.942Z,73.70
2023-02-03T04:04:27.819Z,73.81
2023-02-03T04:07:41.843Z,74.95
2023-02-03T04:10:44.646Z,73.91
2023-02-03T04:13:47.124Z,72.58
2023-02-03T04:16:49.935Z,71.78
2023-02-03T04:19:52.352Z,71.37
2023-02-03T04:22:54.933Z,70.37
2023-02-03T04:25:57.383Z,69.89
2023-02-03T04:28:59.795Z,69.89
2023-02-03T04:32:02.364Z,69.73
2023-02-03T04:35:06.020Z,70.16
2023-02-03T04:38:08.402Z,70.95
2023-02-03T04:41:10.831Z,71.20
2023-02-03T04:44:13.240Z,71.80
2023-02-03T04:47:16.255Z,71.63
2023-02-03T04:50:18.744Z,71.13
2023-02-03T04:53:21.182Z,69.50
2023-02-03T04:56:23.672Z,70.74
2023-02-03T04:59:26.125Z,71.06
2023-02-03T05:02:28.639Z,72.35
2023-02-03T05:05:31.045Z,72.91
2023-02-03T05:08:34.151Z,73.13
2023-02-03T05:11:36.675Z,74.01
2023-02-03T05:14:39.277Z,73.10
2023-02-03T05:17:41.709Z,73.36
2023-02-03T05:20:44.139Z,73.61
2023-02-03T05:23:46.549Z,72.48
2023-02-03T05:26:48.974Z,74.09
2023-02-03T05:29:51.357Z,73.55
2023-02-03T05:32:53.779Z,74.31
2023-02-03T05:35:56.598Z,75.22
2023-02-03T05:38:59.329Z,77.28
2023-02-03T05:42:03.394Z,78.12
2023-02-03T05:45:06.180Z,77.88
2023-02-03T05:48:08.725Z,78.99
2023-02-03T05:51:11.226Z,80.49
2023-02-03T05:54:13.838Z,81.27
2023-02-03T05:57:16.299Z,80.65
2023-02-03T06:00:19.328Z,79.26
2023-02-03T06:03:21.943Z,78.42
2023-02-03T06:06:24.691Z,78.16
2023-02-03T06:09:27.043Z,78.89
2023-02-03T06:12:29.545Z,79.04
2023-02-03T06:15:32.002Z,78.05
2023-02-03T06:18:34.482Z,77.83
2023-02-03T06:21:36.918Z,77.86
2023-02-03T06:24:39.374Z,77.60
2023-02-03T06:27:42.275Z,77.09
2023-02-03T06:30:45.009Z,76.38
2023-02-03T06:33:47.551Z,76.32
2023-02-03T06:36:50.001Z,76.42
2023-02-03T06:39:52.542Z,75.98
2023-02-03T06:42:55.135Z,76.27
2023-02-03T06:45:57.687Z,76.27
2023-02-03T06:49:00.227Z,75.70
2023-02-03T06:52:02.746Z,74.72
2023-02-03T06:55:06.183Z,75.30
2023-02-03T06:58:08.644Z,75.24
2023-02-03T07:01:11.253Z,74.32
2023-02-03T07:04:13.917Z,75.32
2023-02-03T07:07:16.621Z,73.66
2023-02-03T07:10:19.443Z,73.40
2023-02-03T07:13:21.932Z,72.86
2023-02-03T07:16:24.473Z,73.20
2023-02-03T07:19:26.949Z,72.75
2023-02-03T07:22:29.439Z,71.96
2023-02-03T07:25:32.057Z,71.82
2023-02-03T07:28:35.139Z,71.85
2023-02-03T07:31:38.543Z,73.19
2023-02-03T07:34:41.328Z,73.83
2023-02-03T07:37:43.794Z,73.27
2023-02-03T07:40:46.377Z,72.88
2023-02-03T07:43:48.825Z,72.83
2023-02-03T07:46:51.261Z,73.36
2023-02-03T07:49:53.682Z,73.37
2023-02-03T07:52:56.210Z,73.69
2023-02-03T07:56:02.764Z,74.22
2023-02-03T07:59:05.398Z,74.42
2023-02-03T08:02:11.333Z,73.87
2023-02-03T08:05:14.648Z,72.93
2023-02-03T08:08:17.153Z,73.97
2023-02-03T08:11:19.637Z,74.64
2023-02-03T08:14:22.117Z,75.42
2023-02-03T08:17:24.575Z,74.88
2023-02-03T08:20:27.942Z,74.79
2023-02-03T08:23:31.140Z,74.27
2023-02-03T08:26:33.547Z,74.03
2023-02-03T08:29:35.999Z,73.33
2023-02-03T08:32:38.649Z,72.36
2023-02-03T08:35:41.195Z,72.39
2023-02-03T08:38:43.750Z,70.94
2023-02-03T08:41:46.183Z,72.17
2023-02-03T08:44:49.304Z,71.98
2023-02-03T08:47:51.835Z,71.64
2023-02-03T08:50:54.613Z,71.40
2023-02-03T08:53:57.280Z,69.85
2023-02-03T08:56:59.721Z,69.85
2023-02-03T09:00:03.559Z,70.07
2023-02-03T09:03:06.729Z,69.62
2023-02-03T09:06:11.807Z,68.72
2023-02-03T09:09:15.429Z,67.63
2023-02-03T09:12:17.953Z,68.29
2023-02-03T09:15:20.816Z,68.58
2023-02-03T09:18:23.211Z,68.19
2023-02-03T09:21:35.306Z,66.75
2023-02-03T09:24:43.362Z,66.88
2023-02-03T09:27:45.927Z,66.54
2023-02-03T09:30:48.623Z,66.70
2023-02-03T09:33:51.060Z,63.95
2023-02-03T09:36:53.469Z,64.25
2023-02-03T09:39:58.390Z,65.16
2023-02-03T09:43:33.337Z,65.82
2023-02-03T09:46:43.549Z,64.76
2023-02-03T09:49:50.715Z,64.62
2023-02-03T09:52:53.468Z,63.20
2023-02-03T09:55:56.114Z,64.21
2023-02-03T09:58:58.985Z,63.61
2023-02-03T10:02:40.076Z,63.49
2023-02-03T10:06:03.508Z,61.97
2023-02-03T10:09:34.874Z,62.08
2023-02-03T10:13:06.743Z,61.47
2023-02-03T10:16:22.179Z,61.30
2023-02-03T10:19:33.136Z,61.92
2023-02-03T10:22:43.549Z,60.31
2023-02-03T10:25:57.162Z,60.59
2023-02-03T10:29:08.458Z,59.49
2023-02-03T10:32:13.352Z,59.62
2023-02-03T10:35:15.927Z,59.51
2023-02-03T10:38:28.092Z,60.21
2023-02-03T10:41:31.314Z,58.29
2023-02-03T10:44:57.536Z,57.69
2023-02-03T10:48:00.351Z,57.79
2023-02-03T10:51:03.220Z,58.46
2023-02-03T10:54:05.877Z,57.97
2023-02-03T10:57:13.023Z,58.69
2023-02-03T11:00:20.635Z,59.17
2023-02-03T11:03:29.028Z,58.92
2023-02-03T11:06:36.319Z,58.96
2023-02-03T11:09:40.568Z,60.17
2023-02-03T11:12:43.391Z,60.94
2023-02-03T11:16:01.668Z,61.41
2023-02-03T11:19:06.355Z,60.90
2023-02-03T11:22:08.852Z,61.26
2023-02-03T11:25:20.552Z,61.64
2023-02-03T11:28:26.015Z,60.24
2023-02-03T11:31:34.400Z,60.76
2023-02-03T11:34:42.881Z,60.60
2023-02-03T11:37:47.887Z,59.67
2023-02-03T11:40:59.941Z,56.29
2023-02-03T11:44:11.189Z,56.15
2023-02-03T11:47:16.750Z,57.73
2023-02-03T11:50:46.928Z,58.16
2023-02-03T11:54:11.205Z,58.07
2023-02-03T11:57:39.081Z,60.58
2023-02-03T12:01:02.223Z,60.84
2023-02-03T12:04:26.243Z,60.21
2023-02-03T12:07:46.788Z,60.58
2023-02-03T12:11:12.358Z,60.36
2023-02-03T12:14:24.665Z,60.71
2023-02-03T12:17:45.517Z,62.72
2023-02-03T12:21:13.589Z,62.65
2023-02-03T12:24:35.873Z,64.05
2023-02-03T12:28:11.471Z,63.76
2023-02-03T12:31:51.996Z,64.61
2023-02-03T12:35:04.483Z,64.59
2023-02-03T12:38:14.675Z,64.51
2023-02-03T12:41:24.104Z,64.18
2023-02-03T12:44:37.314Z,63.81
2023-02-03T12:48:05.103Z,63.39
2023-02-03T12:51:11.940Z,64.24
2023-02-03T12:54:30.613Z,63.88
2023-02-03T12:57:46.807Z,64.86
2023-02-03T13:00:53.228Z,65.37
2023-02-03T13:04:06.217Z,65.59
2023-02-03T13:07:16.863Z,66.69
2023-02-03T13:10:23.177Z,68.37
2023-02-03T13:13:35.368Z,69.79
2023-02-03T13:16:43.627Z,71.31
2023-02-03T13:19:52.608Z,71.81
2023-02-03T13:22:55.201Z,72.32
2023-02-03T13:26:34.401Z,71.31
2023-02-03T13:30:04.887Z,70.30
2023-02-03T13:33:17.471Z,70.47
2023-02-03T13:36:25.662Z,70.17
2023-02-03T13:39:46.727Z,70.39
2023-02-03T13:42:58.849Z,69.15
2023-02-03T13:46:02.053Z,70.28
2023-02-03T13:49:06.267Z,71.46
2023-02-03T13:52:24.342Z,72.10
2023-02-03T13:55:29.207Z,73.85
2023-02-03T13:58:37.996Z,75.47
2023-02-03T14:01:44.564Z,76.37
2023-02-03T14:04:46.973Z,78.11
2023-02-03T14:07:49.459Z,79.83
2023-02-03T14:11:29.573Z,81.25
2023-02-03T14:14:42.445Z,82.02
2023-02-03T14:17:44.863Z,82.68
2023-02-03T14:20:51.244Z,82.69
2023-02-03T14:23:59.877Z,82.56
2023-02-03T14:27:04.266Z,82.93
2023-02-03T14:30:15.205Z,81.32
2023-02-03T14:33:17.616Z,81.10
2023-02-03T14:36:35.388Z,81.35
2023-02-03T14:40:00.120Z,81.19
2023-02-03T14:43:48.949Z,83.33
2023-02-03T14:47:21.432Z,85.53
2023-02-03T14:51:09.156Z,87.21
2023-02-03T14:54:43.634Z,88.52
2023-02-03T14:57:55.351Z,89.22
2023-02-03T15:00:58.569Z,90.48
2023-02-03T15:04:13.434Z,91.29
2023-02-03T15:07:38.264Z,91.63
2023-02-03T15:10:43.273Z,92.64
2023-02-03T15:13:45.732Z,92.82
2023-02-03T15:17:03.415Z,94.18
2023-02-03T15:20:35.941Z,94.65
2023-02-03T15:23:43.264Z,94.83
2023-02-03T15:26:54.165Z,95.68
2023-02-03T15:29:59.500Z,96.19
2023-02-03T15:33:08.330Z,96.47
2023-02-03T15:36:24.147Z,96.96
2023-02-03T15:39:44.215Z,96.99
2023-02-03T15:43:08.136Z,97.31
2023-02-03T15:46:19.345Z,97.29
2023-02-03T15:49:30.796Z,98.13
2023-02-03T15:52:37.765Z,98.44
2023-02-03T15:55:43.614Z,98.35
2023-02-03T15:58:46.704Z,98.76
2023-02-03T16:01:49.691Z,99.19
2023-02-03T16:04:52.149Z,99.12
2023-02-03T16:07:54.558Z,98.74
2023-02-03T16:10:56.984Z,99.48
2023-02-03T16:14:02.318Z,99.54
2023-02-03T16:17:06.236Z,99.41
2023-02-03T16:20:11.867Z,99.86
2023-02-03T16:23:27.598Z,99.58
2023-02-03T16:26:31.345Z,100.00
2023-02-03T16:29:54.629Z,100.00
2023-02-03T16:33:28.553Z,100.00
2023-02-03T16:36:49.481Z,100.00
2023-02-03T16:40:10.084Z,100.00
2023-02-03T16:43:33.895Z,100.00
2023-02-03T16:46:56.037Z,100.00
2023-02-03T16:50:21.544Z,100.00
2023-02-03T16:53:31.214Z,100.00
2023-02-03T16:56:33.576Z,100.00
2023-02-03T16:59:36.018Z,100.00
2023-02-03T17:02:38.803Z,100.00
2023-02-03T17:05:43.242Z,100.00
2023-02-03T17:08:45.985Z,100.00
2023-02-03T17:11:49.160Z,100.00
2023-02-03T17:14:55.349Z,100.00
2023-02-03T17:17:59.039Z,100.00
2023-02-03T17:21:05.780Z,100.00
2023-02-03T17:24:08.343Z,100.00
2023-02-03T17:27:11.238Z,100.00
2023-02-03T17:30:14.751Z,100.00
2023-02-03T17:33:17.263Z,100.00
2023-02-03T17:36:21.688Z,100.00
2023-02-03T17:56:13.317Z,100.00
2023-02-03T17:59:16.313Z,100.00
2023-02-03T18:02:18.724Z,100.00
2023-02-03T18:05:21.172Z,100.00
2023-02-03T18:08:25.353Z,100.00
2023-02-03T18:11:32.699Z,100.00
2023-02-03T18:14:35.370Z,100.00
2023-02-03T18:17:38.044Z,100.00
2023-02-03T18:20:40.558Z,100.00
2023-02-03T18:23:43.096Z,100.00
2023-02-03T18:26:49.070Z,100.00
2023-02-03T18:29:51.544Z,100.00
2023-02-03T18:32:54.037Z,100.00
2023-02-03T18:35:58.180Z,100.00
2023-02-03T18:39:01.075Z,100.00
2023-02-03T18:42:04.356Z,100.00
2023-02-03T18:45:08.030Z,100.00
2023-02-03T18:48:10.720Z,100.00
2023-02-03T18:51:15.189Z,100.00
2023-02-03T18:54:18.016Z,100.00
2023-02-03T18:57:22.558Z,100.00
2023-02-03T19:00:26.498Z,100.00
2023-02-03T19:03:29.192Z,100.00
2023-02-03T19:06:33.876Z,100.00
2023-02-03T19:09:37.167Z,100.00
2023-02-03T19:12:40.255Z,100.00
2023-02-03T19:15:43.367Z,100.00
2023-02-03T19:18:46.759Z,100.00
2023-02-03T19:21:49.915Z,100.00
2023-02-03T19:24:52.586Z,100.00
2023-02-03T19:27:55.674Z,100.00
2023-02-03T19:31:10.136Z,100.00
2023-02-03T19:34:17.292Z,100.00
2023-02-03T19:37:20.113Z,100.00
2023-02-03T19:40:23.218Z,100.00
2023-02-03T19:43:26.031Z,100.00
2023-02-03T19:46:32.539Z,100.00
2023-02-03T19:49:35.119Z,100.00
2023-02-03T19:52:37.802Z,100.00
2023-02-03T19:55:45.209Z,100.00
2023-02-03T19:58:52.054Z,100.00
2023-02-03T20:01:58.079Z,100.00
2023-02-03T20:05:02.628Z,100.00
2023-02-03T20:08:07.082Z,100.00
2023-02-03T20:11:09.929Z,100.00
2023-02-03T20:14:13.672Z,100.00
2023-02-03T20:17:16.145Z,100.00
2023-02-03T20:20:20.742Z,100.00
2023-02-03T20:23:24.244Z,100.00
2023-02-03T20:26:28.194Z,100.00
2023-02-03T20:29:31.487Z,100.00
2023-02-03T20:32:34.319Z,100.00
2023-02-03T20:35:38.466Z,100.00
2023-02-03T20:38:41.779Z,100.00
2023-02-03T20:41:48.689Z,100.00
2023-02-03T20:44:52.585Z,100.00
2023-02-03T20:47:55.689Z,100.00
2023-02-03T20:50:58.461Z,100.00
2023-02-03T20:54:01.245Z,100.00
2023-02-03T20:57:09.529Z,100.00
2023-02-03T21:00:14.862Z,100.00
2023-02-03T21:03:37.677Z,100.00
2023-02-03T21:06:40.599Z,100.00
2023-02-03T21:09:43.772Z,100.00
2023-02-03T21:12:47.612Z,100.00
2023-02-03T21:15:52.012Z,100.00
2023-02-03T21:18:56.963Z,100.00
2023-02-03T21:22:03.823Z,100.00
2023-02-03T21:25:07.050Z,100.00
2023-02-03T21:28:21.794Z,100.00
2023-02-03T21:31:29.182Z,100.00
2023-02-03T21:34:35.725Z,100.00
2023-02-03T21:37:41.871Z,100.00
2023-02-03T21:40:44.494Z,100.00
2023-02-03T21:43:50.715Z,100.00
2023-02-03T21:46:53.332Z,100.00
2023-02-03T21:49:57.333Z,100.00
2023-02-03T21:53:08.998Z,100.00
2023-02-03T21:56:20.858Z,100.00
2023-02-03T21:59:30.046Z,100.00
2023-02-03T22:02:44.912Z,100.00
2023-02-03T22:05:48.056Z,100.00
2023-02-03T22:08:53.177Z,100.00
2023-02-03T22:11:56.783Z,100.00
2023-02-03T22:14:59.220Z,100.00
2023-02-03T22:18:01.926Z,100.00
2023-02-03T22:21:04.653Z,100.00
2023-02-03T22:24:07.101Z,100.00
2023-02-03T22:27:09.513Z,100.00
2023-02-03T22:30:15.938Z,100.00
2023-02-03T22:33:18.412Z,100.00
2023-02-03T22:36:23.517Z,100.00
2023-02-03T22:39:25.993Z,100.00
2023-02-03T22:42:28.502Z,100.00
2023-02-03T22:45:30.966Z,100.00
2023-02-03T22:48:34.241Z,100.00
2023-02-03T22:51:36.713Z,100.00
2023-02-03T22:54:39.455Z,100.00
2023-02-03T22:57:42.054Z,100.00
2023-02-03T23:00:44.600Z,100.00
2023-02-03T23:03:47.055Z,100.00
2023-02-03T23:06:49.500Z,100.00
2023-02-03T23:09:52.409Z,100.00
2023-02-03T23:12:54.854Z,100.00
2023-02-03T23:15:57.592Z,100.00
2023-02-03T23:19:00.097Z,100.00
2023-02-03T23:22:02.805Z,100.00
2023-02-03T23:25:05.746Z,100.00
2023-02-03T23:28:08.258Z,100.00
2023-02-03T23:31:10.949Z,100.00
2023-02-03T23:34:32.120Z,100.00
2023-02-03T23:37:34.598Z,100.00
2023-02-03T23:40:37.085Z,100.00
2023-02-03T23:43:39.499Z,100.00
2023-02-03T23:46:41.979Z,100.00
2023-02-03T23:49:44.682Z,100.00
2023-02-03T23:52:47.916Z,100.00
2023-02-03T23:55:50.420Z,100.00
2023-02-03T23:58:52.878Z,100.00
